Time;durP1;ratioP1;P1;durP2;ratioP2;P2;SDS_P1;SDS_P2;PMS_P1;PMS_P2;Temp;Humidity;BMP_temperature;BMP_pressure;BME280_temperature;BME280_humidity;BME280_pressure;Samples;Min_cycle;Max_cycle;Signal;HPM_P1;HPM_P2
2023/06/29 00:01:44;;;;;;;12.40;11.10;;;;;;;19.97;100.00;101621.06;5130163;28;20031;-37
2023/06/29 00:04:09;;;;;;;13.32;11.95;;;;;;;19.92;100.00;101624.66;5130321;27;20050;-37
2023/06/29 00:06:36;;;;;;;13.75;12.40;;;;;;;19.91;100.00;101619.41;5130309;27;20448;-37
2023/06/29 00:09:02;;;;;;;14.35;12.85;;;;;;;19.90;100.00;101620.50;5129976;27;20119;-37
2023/06/29 00:11:28;;;;;;;15.02;13.50;;;;;;;19.91;100.00;101611.19;5119383;27;20046;-38
2023/06/29 00:13:53;;;;;;;15.93;13.85;;;;;;;19.89;100.00;101616.13;5116169;28;20047;-37
2023/06/29 00:16:18;;;;;;;15.05;13.13;;;;;;;19.86;100.00;101601.03;5116053;28;20028;-38
2023/06/29 00:18:44;;;;;;;14.95;13.52;;;;;;;19.96;100.00;101609.28;5116435;28;20111;-37
2023/06/29 00:21:09;;;;;;;14.40;12.93;;;;;;;19.80;100.00;101600.19;5115851;28;20027;-37
2023/06/29 00:23:35;;;;;;;15.70;13.35;;;;;;;19.88;100.00;101600.75;5115974;28;20023;-37
2023/06/29 00:26:01;;;;;;;16.50;13.38;;;;;;;19.82;100.00;101599.13;5116690;28;20028;-37
2023/06/29 00:28:26;;;;;;;15.88;13.27;;;;;;;19.77;100.00;101594.47;5115912;28;20020;-36
2023/06/29 00:30:51;;;;;;;13.80;12.40;;;;;;;19.77;100.00;101589.78;5116133;28;20486;-37
2023/06/29 00:33:17;;;;;;;16.33;13.95;;;;;;;19.77;100.00;101597.22;5115800;28;20379;-37
2023/06/29 00:35:42;;;;;;;14.07;12.57;;;;;;;19.78;100.00;101596.91;5115517;28;20038;-37
2023/06/29 00:38:07;;;;;;;13.52;12.27;;;;;;;19.77;100.00;101598.03;5116021;28;20055;-37
2023/06/29 00:40:33;;;;;;;14.85;13.40;;;;;;;19.73;100.00;101591.44;5115912;27;20027;-37
2023/06/29 00:42:58;;;;;;;15.10;13.57;;;;;;;19.71;100.00;101590.88;5115600;28;20122;-37
2023/06/29 00:45:23;;;;;;;15.38;13.60;;;;;;;19.71;100.00;101590.03;5115802;28;20035;-37
2023/06/29 00:47:49;;;;;;;14.65;13.07;;;;;;;19.70;100.00;101591.16;5115341;28;20032;-37
2023/06/29 00:50:16;;;;;;;14.80;12.82;;;;;;;19.70;100.00;101589.22;5115229;28;20117;-37
2023/06/29 00:52:42;;;;;;;13.60;12.23;;;;;;;19.71;100.00;101596.34;5115997;28;20076;-37
2023/06/29 00:55:08;;;;;;;17.35;14.07;;;;;;;19.75;100.00;101597.47;5115367;28;20019;-37
2023/06/29 00:57:33;;;;;;;15.00;13.10;;;;;;;19.80;100.00;101589.22;5115166;28;20103;-37
2023/06/29 01:00:00;;;;;;;15.85;13.50;;;;;;;19.80;100.00;101577.44;5115852;28;20055;-37
2023/06/29 01:02:35;;;;;;;15.00;13.30;;;;;;;19.80;100.00;101578.25;5115246;28;20023;-36
2023/06/29 01:05:03;;;;;;;14.25;12.82;;;;;;;19.72;100.00;101572.50;5115203;28;20102;-36
2023/06/29 01:07:56;;;;;;;14.50;13.10;;;;;;;19.73;100.00;101568.66;5115416;28;20591;-36
2023/06/29 01:10:25;;;;;;;15.63;13.50;;;;;;;19.63;100.00;101566.75;5115134;27;20038;-36
2023/06/29 01:12:53;;;;;;;15.32;13.63;;;;;;;19.65;100.00;101572.75;5115649;27;20027;-36
2023/06/29 01:15:19;;;;;;;14.98;13.50;;;;;;;19.59;100.00;101559.28;5114820;28;20452;-36
2023/06/29 01:17:47;;;;;;;15.77;13.40;;;;;;;19.65;100.00;101572.75;5115491;28;20059;-37
2023/06/29 01:20:14;;;;;;;15.10;13.55;;;;;;;19.59;100.00;101565.59;5114786;28;20103;-37
2023/06/29 01:22:53;;;;;;;14.35;12.88;;;;;;;19.64;100.00;101562.06;5113864;28;20110;-37
2023/06/29 01:25:19;;;;;;;15.07;13.48;;;;;;;19.64;100.00;101562.91;5115307;28;20032;-37
2023/06/29 01:27:46;;;;;;;14.50;13.00;;;;;;;19.64;100.00;101570.31;5115263;28;20023;-37
2023/06/29 01:30:11;;;;;;;16.17;13.27;;;;;;;19.68;100.00;101563.19;5114410;28;20027;-37
2023/06/29 01:32:37;;;;;;;14.95;13.45;;;;;;;19.67;100.00;101561.53;5114928;28;20072;-37
2023/06/29 01:35:03;;;;;;;15.02;13.52;;;;;;;19.62;100.00;101567.84;5115270;28;20027;-37
2023/06/29 01:37:37;;;;;;;14.65;13.15;;;;;;;19.62;100.00;101567.84;5114266;28;20114;-37
2023/06/29 01:40:08;;;;;;;15.80;14.07;;;;;;;19.58;100.00;101558.47;5114197;28;20028;-37
2023/06/29 01:42:35;;;;;;;15.48;13.90;;;;;;;19.59;100.00;101554.63;5114439;28;20032;-37
2023/06/29 01:45:03;;;;;;;16.23;13.43;;;;;;;19.58;100.00;101543.94;5114603;28;20019;-37
2023/06/29 01:47:30;;;;;;;17.63;14.13;;;;;;;19.66;100.00;101549.72;5115099;28;20028;-37
2023/06/29 01:49:55;;;;;;;15.25;13.82;;;;;;;19.60;100.00;101539.03;5114238;28;20487;-37
2023/06/29 01:52:21;;;;;;;15.00;13.13;;;;;;;19.71;100.00;101548.88;5114317;28;20020;-37
2023/06/29 01:54:47;;;;;;;15.60;13.98;;;;;;;19.64;100.00;101545.59;5114218;28;20028;-37
2023/06/29 01:57:15;;;;;;;15.95;13.93;;;;;;;19.61;100.00;101544.22;5114603;28;20028;-37
2023/06/29 01:59:40;;;;;;;15.20;13.60;;;;;;;19.62;100.00;101543.16;5112395;28;20092;-37
2023/06/29 02:02:06;;;;;;;16.92;14.38;;;;;;;19.56;100.00;101550.50;5114288;28;20027;-37
2023/06/29 02:04:32;;;;;;;15.68;13.93;;;;;;;19.56;100.00;101552.44;5114177;28;20110;-37
2023/06/29 02:06:58;;;;;;;15.75;13.95;;;;;;;19.61;100.00;101557.13;5114042;28;20053;-37
2023/06/29 02:09:23;;;;;;;16.15;13.95;;;;;;;19.54;100.00;101539.00;5113917;28;20028;-37
2023/06/29 02:11:49;;;;;;;16.02;13.98;;;;;;;19.52;100.00;101537.59;5114604;28;20084;-37
2023/06/29 02:14:17;;;;;;;16.15;14.15;;;;;;;19.53;100.00;101539.28;5113893;28;20023;-37
2023/06/29 02:16:46;;;;;;;15.05;12.75;;;;;;;19.56;100.00;101539.53;5114577;28;20016;-37
2023/06/29 02:19:12;;;;;;;14.85;13.27;;;;;;;19.48;100.00;101533.78;5113721;28;20051;-37
2023/06/29 02:21:37;;;;;;;16.73;14.25;;;;;;;19.51;100.00;101534.03;5113584;28;20514;-36
2023/06/29 02:24:03;;;;;;;14.93;13.43;;;;;;;19.47;100.00;101530.22;5113427;28;20030;-36
2023/06/29 02:26:28;;;;;;;15.25;13.60;;;;;;;19.45;100.00;101515.94;5113895;28;20066;-37
2023/06/29 02:28:53;;;;;;;14.45;13.02;;;;;;;19.51;100.00;101525.00;5113663;28;20027;-37
2023/06/29 02:31:19;;;;;;;15.90;14.30;;;;;;;19.53;100.00;101528.31;5113393;28;20035;-37
2023/06/29 02:33:45;;;;;;;16.60;13.73;;;;;;;19.50;100.00;101524.19;5113721;28;20027;-37
2023/06/29 02:36:10;;;;;;;15.93;14.30;;;;;;;19.57;100.00;101523.91;5113609;28;20027;-37
2023/06/29 02:38:36;;;;;;;16.20;14.50;;;;;;;19.53;100.00;101518.16;5113646;28;20028;-38
2023/06/29 02:41:01;;;;;;;16.25;14.57;;;;;;;19.51;100.00;101520.31;5113995;28;20062;-37
2023/06/29 02:43:27;;;;;;;15.40;13.07;;;;;;;19.51;100.00;101500.31;5113328;28;20647;-37
2023/06/29 02:45:52;;;;;;;15.35;13.18;;;;;;;19.55;100.00;101512.38;5113420;28;20034;-37
2023/06/29 02:48:17;;;;;;;16.02;14.32;;;;;;;19.48;100.00;101511.84;5113323;28;20036;-37
2023/06/29 02:50:43;;;;;;;16.13;14.18;;;;;;;19.49;100.00;101508.00;5113598;28;20165;-37
2023/06/29 02:53:11;;;;;;;16.92;14.63;;;;;;;19.44;100.00;101508.81;5112876;28;20038;-37
2023/06/29 02:55:36;;;;;;;16.00;14.32;;;;;;;19.47;100.00;101507.44;5113783;28;20027;-37
2023/06/29 02:58:01;;;;;;;16.88;15.10;;;;;;;19.45;100.00;101509.63;5112937;28;20042;-37
2023/06/29 03:00:27;;;;;;;15.00;13.40;;;;;;;19.38;100.00;101498.97;5113894;28;20059;-37
2023/06/29 03:02:52;;;;;;;15.23;13.57;;;;;;;19.46;100.00;101503.06;5113789;28;20379;-37
2023/06/29 03:05:18;;;;;;;16.00;14.32;;;;;;;19.37;100.00;101500.03;5113146;28;20478;-37
2023/06/29 03:07:43;;;;;;;15.95;14.25;;;;;;;19.41;100.00;101508.53;5113634;28;20115;-37
2023/06/29 03:10:09;;;;;;;14.65;13.00;;;;;;;19.44;100.00;101508.81;5113126;28;20027;-37
2023/06/29 03:12:34;;;;;;;14.88;13.35;;;;;;;19.35;100.00;101484.97;5113354;28;20028;-37
2023/06/29 03:14:59;;;;;;;16.20;13.90;;;;;;;19.38;100.00;101495.41;5112820;28;20468;-37
2023/06/29 03:17:27;;;;;;;16.90;15.05;;;;;;;19.37;100.00;101499.22;5113623;28;20038;-37
2023/06/29 03:19:52;;;;;;;15.77;13.82;;;;;;;19.40;100.00;101507.72;5112913;28;20070;-37
2023/06/29 03:22:17;;;;;;;16.40;14.13;;;;;;;19.40;100.00;101502.22;5113546;28;20059;-37
2023/06/29 03:24:43;;;;;;;16.52;14.52;;;;;;;19.40;100.00;101501.41;5113189;28;20055;-37
2023/06/29 03:27:08;;;;;;;15.88;14.30;;;;;;;19.37;100.00;101500.03;5113053;28;20447;-37
2023/06/29 03:29:33;;;;;;;17.85;15.50;;;;;;;19.33;100.00;101488.00;5113315;28;20030;-37
2023/06/29 03:31:59;;;;;;;15.43;13.85;;;;;;;19.36;100.00;101503.88;5113018;28;20032;-37
2023/06/29 03:34:26;;;;;;;16.20;14.55;;;;;;;19.36;100.00;101497.56;5112587;28;20506;-37
2023/06/29 03:36:51;;;;;;;16.45;14.50;;;;;;;19.34;100.00;101494.28;5113345;28;20115;-37
2023/06/29 03:39:17;;;;;;;16.08;14.40;;;;;;;19.29;100.00;101484.97;5112795;28;20106;-37
2023/06/29 03:41:42;;;;;;;17.05;15.23;;;;;;;19.35;100.00;101487.72;5113062;28;20472;-37
2023/06/29 03:44:07;;;;;;;15.65;14.00;;;;;;;19.30;100.00;101481.13;5112845;28;20464;-36
2023/06/29 03:46:33;;;;;;;17.38;15.13;;;;;;;19.32;100.00;101488.25;5114876;28;20019;-37
2023/06/29 03:48:58;;;;;;;17.73;15.65;;;;;;;19.22;100.00;101475.34;5117275;28;20036;-36
2023/06/29 03:51:23;;;;;;;18.10;15.88;;;;;;;19.33;100.00;101492.66;5116890;28;20100;-37
2023/06/29 03:53:49;;;;;;;18.50;15.10;;;;;;;19.35;100.00;101490.44;5116365;28;20111;-37
2023/06/29 03:56:14;;;;;;;17.65;15.05;;;;;;;19.32;100.00;101475.34;5116900;28;20031;-37
2023/06/29 03:58:39;;;;;;;17.20;15.35;;;;;;;19.32;100.00;101480.84;5116223;28;20448;-37
2023/06/29 04:01:05;;;;;;;17.90;15.27;;;;;;;19.41;100.00;101486.59;5075722;28;20040;-37
2023/06/29 04:03:30;;;;;;;16.63;13.85;;;;;;;19.41;100.00;101479.19;5076057;28;20031;-37
2023/06/29 04:05:55;;;;;;;18.42;15.80;;;;;;;19.41;100.00;101481.13;5076050;28;20442;-37
2023/06/29 04:08:21;;;;;;;16.10;14.50;;;;;;;19.45;100.00;101483.03;5075657;28;20021;-37
2023/06/29 04:10:46;;;;;;;17.05;15.25;;;;;;;19.44;100.00;101470.44;5075361;28;20153;-37
2023/06/29 04:13:12;;;;;;;19.48;15.70;;;;;;;19.42;100.00;101474.53;5075772;28;20056;-37
2023/06/29 04:15:37;;;;;;;17.52;15.18;;;;;;;19.43;100.00;101468.78;5075802;28;20032;-37
2023/06/29 04:18:02;;;;;;;18.38;15.20;;;;;;;19.43;100.00;101460.56;5075722;28;20082;-36
2023/06/29 04:20:28;;;;;;;18.33;15.95;;;;;;;19.51;100.00;101470.13;5075364;28;20029;-37
2023/06/29 04:22:55;;;;;;;19.20;15.15;;;;;;;19.47;100.00;101469.03;5075381;28;20146;-36
2023/06/29 04:25:20;;;;;;;19.05;15.13;;;;;;;19.46;100.00;101467.41;5076072;28;20035;-36
2023/06/29 04:27:46;;;;;;;18.23;15.63;;;;;;;19.42;100.00;101466.31;5075710;28;20032;-36
2023/06/29 04:30:12;;;;;;;17.20;15.32;;;;;;;19.47;100.00;101466.28;5073920;28;20032;-36
2023/06/29 04:32:37;;;;;;;18.35;15.90;;;;;;;19.51;100.00;101467.38;5075207;28;20032;-37
2023/06/29 04:35:03;;;;;;;16.27;14.35;;;;;;;19.53;100.00;101465.22;5075808;28;20021;-37
2023/06/29 04:37:35;;;;;;;17.48;15.05;;;;;;;19.58;100.00;101467.94;5074847;28;20020;-37
2023/06/29 04:40:01;;;;;;;16.63;14.93;;;;;;;19.57;100.00;101469.06;5075209;28;20438;-36
2023/06/29 04:42:30;;;;;;;18.48;15.30;;;;;;;19.57;100.00;101460.81;5075127;28;20052;-37
2023/06/29 04:44:55;;;;;;;17.92;14.60;;;;;;;19.61;100.00;101464.66;5074856;28;20119;-37
2023/06/29 04:47:21;;;;;;;19.38;15.77;;;;;;;19.60;100.00;101457.53;5075629;28;20113;-37
2023/06/29 04:49:51;;;;;;;18.08;15.60;;;;;;;19.54;100.00;101451.22;5074907;28;20066;-37
2023/06/29 04:52:18;;;;;;;20.38;16.20;;;;;;;19.58;100.00;101458.91;5074783;28;20029;-37
2023/06/29 04:54:44;;;;;;;19.48;15.35;;;;;;;19.60;100.00;101452.06;5074543;28;20074;-37
2023/06/29 04:57:12;;;;;;;20.65;15.60;;;;;;;19.64;100.00;101458.63;5074892;28;20028;-37
2023/06/29 04:59:37;;;;;;;17.67;15.77;;;;;;;19.58;100.00;101448.75;5091259;28;20055;-37
2023/06/29 05:02:02;;;;;;;19.15;15.65;;;;;;;19.67;100.00;101452.59;5115815;28;20455;-37
2023/06/29 05:04:28;;;;;;;23.48;17.85;;;;;;;19.63;100.00;101454.25;5115232;28;20020;-37
2023/06/29 05:06:54;;;;;;;17.77;15.85;;;;;;;19.60;100.00;101445.75;5114992;28;20024;-37
2023/06/29 05:09:19;;;;;;;17.25;14.98;;;;;;;19.70;100.00;101456.69;5115618;28;20034;-37
2023/06/29 05:11:44;;;;;;;20.13;16.95;;;;;;;19.66;100.00;101461.09;5114811;28;20039;-37
2023/06/29 05:14:10;;;;;;;17.90;16.00;;;;;;;19.67;100.00;101449.03;5115417;28;20501;-37
2023/06/29 05:16:36;;;;;;;20.65;16.55;;;;;;;19.59;100.00;101438.59;5115233;28;20035;-38
2023/06/29 05:19:02;;;;;;;18.40;16.40;;;;;;;19.63;100.00;101443.28;5114645;28;20080;-38
2023/06/29 05:21:28;;;;;;;19.77;17.02;;;;;;;19.73;100.00;101450.66;5114674;28;20043;-38
2023/06/29 05:23:54;;;;;;;18.88;15.68;;;;;;;19.74;100.00;101442.16;5114808;28;20101;-38
2023/06/29 05:26:19;;;;;;;18.35;16.40;;;;;;;19.82;100.00;101449.00;5115589;28;20122;-38
2023/06/29 05:28:45;;;;;;;19.90;17.45;;;;;;;19.75;100.00;101452.03;5115178;28;20036;-38
2023/06/29 05:31:10;;;;;;;18.58;16.65;;;;;;;19.72;100.00;101449.84;5114720;28;20063;-37
2023/06/29 05:33:35;;;;;;;22.13;17.67;;;;;;;19.72;100.00;101449.84;5114261;28;20352;-38
2023/06/29 05:36:01;;;;;;;19.67;17.08;;;;;;;19.69;100.00;101447.66;5114640;28;20034;-38
2023/06/29 05:38:29;;;;;;;22.35;17.25;;;;;;;19.73;100.00;101446.00;5114512;28;20473;-38
2023/06/29 05:40:54;;;;;;;21.25;16.48;;;;;;;19.73;100.00;101440.53;5115234;28;20023;-38
2023/06/29 05:43:21;;;;;;;19.55;17.25;;;;;;;19.74;100.00;101444.09;5114855;27;20050;-37
2023/06/29 05:45:47;;;;;;;20.45;17.60;;;;;;;19.74;100.00;101447.63;5114700;28;20032;-37
2023/06/29 05:48:12;;;;;;;18.70;16.67;;;;;;;19.73;100.00;101431.47;5114746;28;20407;-37
2023/06/29 05:50:37;;;;;;;18.65;16.73;;;;;;;19.77;100.00;101438.88;5114543;28;20031;-38
2023/06/29 05:53:04;;;;;;;21.85;17.52;;;;;;;19.79;100.00;101442.13;5114208;28;20095;-37
2023/06/29 05:55:29;;;;;;;20.05;17.92;;;;;;;19.79;100.00;101439.41;5114233;28;20027;-38
2023/06/29 05:57:54;;;;;;;19.73;17.63;;;;;;;19.80;100.00;101441.03;5113866;28;20076;-38
2023/06/29 06:00:20;;;;;;;21.15;17.92;;;;;;;19.80;100.00;101441.03;5114510;28;20051;-38
2023/06/29 06:02:45;;;;;;;18.67;16.67;;;;;;;19.78;100.00;101446.00;5113904;28;20023;-38
2023/06/29 06:05:11;;;;;;;21.25;16.60;;;;;;;19.79;100.00;101441.31;5114095;28;20396;-38
2023/06/29 06:07:36;;;;;;;19.73;16.77;;;;;;;19.88;100.00;101436.09;5114351;28;20028;-38
2023/06/29 06:10:03;;;;;;;21.15;18.58;;;;;;;19.91;100.00;101438.25;5113853;28;20463;-38
2023/06/29 06:12:28;;;;;;;18.63;16.60;;;;;;;19.95;100.00;101440.16;5114219;28;20546;-38
2023/06/29 06:14:55;;;;;;;19.13;16.45;;;;;;;19.99;100.00;101445.94;5113974;28;20114;-38
2023/06/29 06:17:20;;;;;;;18.08;16.27;;;;;;;20.01;100.00;101447.31;5114232;28;20027;-38
2023/06/29 06:19:45;;;;;;;19.33;16.30;;;;;;;20.08;100.00;101451.66;5113803;28;20516;-38
2023/06/29 06:22:11;;;;;;;19.98;16.70;;;;;;;20.08;100.00;101446.19;5113827;28;20028;-37
2023/06/29 06:24:36;;;;;;;18.00;16.10;;;;;;;20.12;100.00;101441.78;5113720;28;20034;-38
2023/06/29 06:27:02;;;;;;;17.23;15.43;;;;;;;20.07;100.00;101434.38;5113738;28;20069;-38
2023/06/29 06:29:28;;;;;;;17.77;15.98;;;;;;;20.04;100.00;101434.94;5113459;28;20043;-38
2023/06/29 06:31:54;;;;;;;15.65;14.15;;;;;;;20.16;100.00;101446.44;5114024;28;20027;-37
2023/06/29 06:34:19;;;;;;;18.83;15.23;;;;;;;20.20;100.00;101441.19;5113586;28;20038;-37
2023/06/29 06:36:48;;;;;;;18.75;14.75;;;;;;;20.23;100.00;101441.44;5113591;28;20375;-38
2023/06/29 06:39:18;;;;;;;16.20;14.35;;;;;;;20.24;100.00;101445.81;5113468;28;20030;-38
2023/06/29 06:41:43;;;;;;;16.30;13.93;;;;;;;20.28;100.00;101441.41;5113742;28;20050;-38
2023/06/29 06:44:08;;;;;;;17.63;14.43;;;;;;;20.33;100.00;101443.31;5113389;28;20031;-38
2023/06/29 06:46:34;;;;;;;16.35;14.65;;;;;;;20.41;100.00;101442.75;5113564;28;20028;-38
2023/06/29 06:48:59;;;;;;;15.50;13.88;;;;;;;20.46;100.00;101439.97;5113404;28;20080;-38
2023/06/29 06:51:27;;;;;;;14.80;13.25;;;;;;;20.47;100.00;101432.56;5113893;28;20436;-38
2023/06/29 06:53:54;;;;;;;14.85;13.20;;;;;;;20.52;100.00;101441.59;5113774;28;20063;-38
2023/06/29 06:56:20;;;;;;;14.60;13.05;;;;;;;20.63;100.00;101447.88;5113660;28;20031;-38
2023/06/29 06:58:45;;;;;;;14.88;12.73;;;;;;;20.72;100.00;101437.91;5113780;28;20445;-38
2023/06/29 07:01:11;;;;;;;14.23;12.75;;;;;;;20.81;100.00;101438.97;5113605;28;20040;-38
2023/06/29 07:03:36;;;;;;;16.73;13.05;;;;;;;20.88;100.00;101438.63;5113245;28;20105;-38
2023/06/29 07:06:02;;;;;;;13.88;12.57;;;;;;;21.00;100.00;101433.59;5113443;28;20035;-38
2023/06/29 07:08:27;;;;;;;14.73;13.20;;;;;;;21.13;100.00;101443.13;5111658;28;20490;-38
2023/06/29 07:10:53;;;;;;;14.77;12.50;;;;;;;21.22;100.00;101437.81;5113792;28;20027;-38
2023/06/29 07:13:19;;;;;;;15.43;12.68;;;;;;;21.32;100.00;101438.56;5112817;28;20020;-38
2023/06/29 07:15:46;;;;;;;13.88;12.27;;;;;;;21.38;100.00;101431.13;5113401;28;20027;-38
2023/06/29 07:18:11;;;;;;;17.35;12.68;;;;;;;21.49;100.00;101437.34;5112883;28;20510;-38
2023/06/29 07:20:37;;;;;;;14.07;12.38;;;;;;;21.55;100.00;101438.94;5113873;28;20067;-38
2023/06/29 07:23:02;;;;;;;15.00;13.50;;;;;;;21.66;99.18;101425.88;5117270;28;20019;-38
2023/06/29 07:25:28;;;;;;;14.52;13.00;;;;;;;21.72;99.44;101433.81;5117828;28;20059;-38
2023/06/29 07:27:54;;;;;;;16.27;12.90;;;;;;;21.80;98.27;101438.66;5116912;28;20023;-37
2023/06/29 07:30:19;;;;;;;13.93;12.52;;;;;;;21.79;97.18;101437.03;5117335;28;20028;-38
2023/06/29 07:32:44;;;;;;;14.27;12.77;;;;;;;21.80;97.24;101437.84;5116825;28;20024;-38
2023/06/29 07:35:10;;;;;;;15.23;13.38;;;;;;;21.87;94.94;101432.00;5117176;28;20020;-38
2023/06/29 07:37:35;;;;;;;14.70;13.20;;;;;;;21.92;93.27;101426.44;5116890;28;20062;-38
2023/06/29 07:40:02;;;;;;;15.10;12.57;;;;;;;21.92;93.12;101427.25;5117047;28;20081;-38
2023/06/29 07:42:27;;;;;;;13.98;12.68;;;;;;;22.06;95.43;101433.69;5117061;28;20028;-38
2023/06/29 07:44:53;;;;;;;15.25;13.10;;;;;;;22.18;95.02;101427.78;5116884;28;20076;-38
2023/06/29 07:47:18;;;;;;;15.10;13.63;;;;;;;22.25;95.01;101420.00;5117206;28;20118;-38
2023/06/29 07:49:43;;;;;;;21.33;14.85;;;;;;;22.31;90.70;101427.06;5116893;28;20432;-38
2023/06/29 07:52:09;;;;;;;15.27;13.70;;;;;;;22.43;91.47;101420.31;5116577;28;20467;-38
2023/06/29 07:54:34;;;;;;;14.88;13.20;;;;;;;22.52;91.84;101408.31;5116452;28;20027;-38
2023/06/29 07:56:59;;;;;;;15.65;14.02;;;;;;;22.63;91.14;101422.75;5115848;28;20032;-38
2023/06/29 07:59:24;;;;;;;16.00;13.85;;;;;;;22.70;88.90;101420.47;5116560;28;20113;-37
2023/06/29 08:01:50;;;;;;;15.55;13.55;;;;;;;22.83;87.85;101416.94;5116953;28;20463;-37
2023/06/29 08:04:16;;;;;;;15.38;13.77;;;;;;;22.94;85.91;101422.34;5116890;28;20049;-37
2023/06/29 08:06:43;;;;;;;14.95;13.35;;;;;;;22.95;83.69;101418.47;5116536;28;20028;-38
2023/06/29 08:09:10;;;;;;;14.98;13.38;;;;;;;22.95;85.75;101416.53;5116426;28;20059;-37
2023/06/29 08:11:36;;;;;;;15.23;13.35;;;;;;;22.88;83.32;101411.38;5116468;28;20047;-37
2023/06/29 08:14:02;;;;;;;15.57;13.00;;;;;;;22.79;82.92;101407.66;5116631;28;20540;-37
2023/06/29 08:16:27;;;;;;;14.98;13.45;;;;;;;22.83;82.89;101413.38;5116592;28;20035;-37
2023/06/29 08:18:52;;;;;;;15.20;13.70;;;;;;;22.72;82.98;101404.44;5116243;28;20024;-37
2023/06/29 08:21:18;;;;;;;18.30;14.68;;;;;;;22.77;81.56;101407.13;5116595;28;20055;-37
2023/06/29 08:23:43;;;;;;;14.68;13.18;;;;;;;22.83;82.58;101408.66;5115930;28;20027;-37
2023/06/29 08:26:08;;;;;;;14.65;13.10;;;;;;;22.78;82.78;101394.97;5116376;28;20046;-38
2023/06/29 08:28:34;;;;;;;16.05;14.32;;;;;;;22.90;83.90;101413.84;5116162;28;20020;-37
2023/06/29 08:30:59;;;;;;;15.48;13.85;;;;;;;;;;5115759;28;20027;-37
2023/06/29 08:33:24;;;;;;;15.90;14.25;;;;;;;23.00;83.45;101415.63;5115880;28;20038;-37
2023/06/29 08:35:51;;;;;;;14.15;12.65;;;;;;;22.97;83.21;101405.19;5116637;28;20345;-37
2023/06/29 08:38:16;;;;;;;15.68;14.07;;;;;;;22.96;83.30;101409.06;5116299;28;20030;-37
2023/06/29 08:40:46;;;;;;;16.38;14.68;;;;;;;23.02;85.12;101416.13;5115742;28;20451;-37
2023/06/29 08:43:12;;;;;;;17.33;14.00;;;;;;;22.99;83.88;101408.47;5116528;28;20114;-37
2023/06/29 08:45:37;;;;;;;15.60;13.98;;;;;;;22.95;83.75;101401.91;5116566;28;20106;-37
2023/06/29 08:48:03;;;;;;;15.77;14.10;;;;;;;23.03;84.00;101415.00;5115490;28;20035;-38
2023/06/29 08:50:33;;;;;;;16.50;14.25;;;;;;;23.02;83.99;101399.59;5115671;28;20512;-37
2023/06/29 08:52:59;;;;;;;15.00;13.50;;;;;;;23.16;82.71;101397.69;5115654;27;20026;-37
2023/06/29 08:55:25;;;;;;;15.48;12.90;;;;;;;23.26;83.39;101414.06;5115857;28;20023;-37
2023/06/29 08:57:53;;;;;;;15.00;13.43;;;;;;;23.37;84.30;101410.00;5115491;28;20038;-38
2023/06/29 09:00:19;;;;;;;15.48;13.90;;;;;;;23.40;82.20;101408.56;5115095;28;20051;-36
2023/06/29 09:02:45;;;;;;;15.00;13.52;;;;;;;23.48;82.54;101409.84;5115778;28;20047;-36
2023/06/29 09:05:13;;;;;;;15.35;13.85;;;;;;;23.48;81.76;101401.56;5115574;28;20066;-37
2023/06/29 09:07:40;;;;;;;16.92;14.65;;;;;;;23.56;79.20;101406.34;5115907;28;20027;-37
2023/06/29 09:10:08;;;;;;;16.10;14.50;;;;;;;23.78;79.59;101401.00;5115215;28;20035;-37
2023/06/29 09:12:36;;;;;;;15.45;13.85;;;;;;;23.89;77.61;101394.13;5115799;28;20062;-37
2023/06/29 09:15:05;;;;;;;17.17;14.75;;;;;;;23.93;77.13;101399.88;5115284;28;20050;-37
2023/06/29 09:17:33;;;;;;;17.58;14.70;;;;;;;23.95;77.47;101392.06;5115645;28;20032;-37
2023/06/29 09:20:00;;;;;;;16.80;14.98;;;;;;;23.97;76.27;101394.56;5114671;28;20023;-37
2023/06/29 09:22:27;;;;;;;16.50;14.80;;;;;;;24.08;74.65;101398.72;5115322;28;20106;-37
2023/06/29 09:24:57;;;;;;;17.40;14.20;;;;;;;24.11;75.45;101396.19;5114753;28;20306;-37
2023/06/29 09:27:22;;;;;;;17.75;14.52;;;;;;;24.07;74.15;101386.88;5115456;28;20456;-37
2023/06/29 09:29:50;;;;;;;17.50;15.10;;;;;;;23.98;73.77;101387.91;5114896;28;20042;-37
2023/06/29 09:32:16;;;;;;;16.45;14.85;;;;;;;23.95;72.57;101400.34;5115229;28;20062;-37
2023/06/29 09:34:48;;;;;;;15.07;13.57;;;;;;;24.08;74.12;101395.97;5114885;28;20464;-37
2023/06/29 09:37:17;;;;;;;20.35;15.13;;;;;;;24.01;74.19;101390.03;5114906;28;20038;-37
2023/06/29 09:40:12;;;;;;;15.77;14.18;;;;;;;24.04;75.37;101394.94;5114933;28;20016;-37
2023/06/29 09:42:38;;;;;;;15.95;14.35;;;;;;;23.87;75.15;101395.56;5114354;28;20178;-37
2023/06/29 09:45:11;;;;;;;15.27;13.80;;;;;;;23.84;76.55;101394.22;5114014;28;20023;-37
2023/06/29 09:47:38;;;;;;;16.67;14.98;;;;;;;23.80;75.63;101395.97;5114835;28;20051;-37
2023/06/29 09:50:16;;;;;;;16.25;14.60;;;;;;;23.80;76.61;101395.16;5114579;28;20035;-37
2023/06/29 09:52:46;;;;;;;15.70;14.13;;;;;;;23.79;76.45;101379.72;5115046;28;20059;-37
2023/06/29 09:55:12;;;;;;;16.15;14.43;;;;;;;23.88;75.88;101398.03;5114911;28;20024;-37
2023/06/29 09:57:40;;;;;;;18.17;16.27;;;;;;;23.85;75.36;101397.81;5114367;28;20031;-37
2023/06/29 10:00:10;;;;;;;16.98;15.27;;;;;;;23.78;73.68;101406.50;5114389;28;20043;-37
2023/06/29 10:02:36;;;;;;;18.23;15.65;;;;;;;23.79;72.58;101405.38;5115113;27;20027;-37
2023/06/29 10:05:01;;;;;;;17.42;15.68;;;;;;;23.77;73.25;101396.59;5114049;28;20313;-37
2023/06/29 10:07:27;;;;;;;17.80;15.18;;;;;;;23.81;73.11;101386.56;5114962;28;20066;-37
2023/06/29 10:09:53;;;;;;;17.30;15.43;;;;;;;23.78;74.00;101387.19;5114155;28;20035;-37
2023/06/29 10:12:22;;;;;;;16.77;14.95;;;;;;;23.82;74.05;101390.97;5114351;28;20028;-37
2023/06/29 10:14:49;;;;;;;18.17;15.18;;;;;;;23.83;73.43;101389.03;5113955;28;20038;-37
2023/06/29 10:17:30;;;;;;;17.70;15.85;;;;;;;23.92;74.89;101395.47;5114157;28;20498;-37
2023/06/29 10:19:57;;;;;;;18.27;16.23;;;;;;;23.84;72.98;101385.94;5113568;27;20056;-37
2023/06/29 10:22:26;;;;;;;17.70;15.82;;;;;;;23.98;72.95;101390.66;5113653;28;20019;-37
2023/06/29 10:25:02;;;;;;;15.90;14.27;;;;;;;23.99;73.89;101392.28;5114002;28;20106;-37
2023/06/29 10:27:30;;;;;;;17.30;15.50;;;;;;;23.92;75.11;101381.66;5114842;27;20085;-37
2023/06/29 10:29:56;;;;;;;17.70;15.73;;;;;;;24.02;73.72;101391.69;5113893;28;20031;-38
2023/06/29 10:32:35;;;;;;;16.60;14.80;;;;;;;24.08;73.74;101398.72;5114441;28;20371;-37
2023/06/29 10:35:12;;;;;;;16.95;15.18;;;;;;;24.07;75.00;101388.81;5114467;28;20089;-37
2023/06/29 10:37:41;;;;;;;16.63;14.88;;;;;;;24.05;73.14;101399.34;5114012;28;20123;-37
2023/06/29 10:40:14;;;;;;;17.27;15.50;;;;;;;23.98;76.83;101396.19;5113591;28;20115;-37
2023/06/29 10:42:40;;;;;;;17.10;15.40;;;;;;;23.96;75.17;101379.09;5113648;28;20032;-38
2023/06/29 10:45:30;;;;;;;15.75;14.10;;;;;;;24.05;74.76;101385.53;5113348;28;20032;-38
2023/06/29 10:47:56;;;;;;;19.40;15.13;;;;;;;23.93;76.43;101382.47;5113675;28;20038;-38
2023/06/29 10:50:24;;;;;;;17.25;15.50;;;;;;;23.94;75.01;101382.16;5113209;28;20024;-38
2023/06/29 10:52:50;;;;;;;16.63;14.93;;;;;;;23.97;74.83;101392.59;5114047;28;20092;-38
2023/06/29 10:55:16;;;;;;;17.30;15.40;;;;;;;23.91;72.53;101385.53;5114165;28;20030;-38
2023/06/29 10:57:52;;;;;;;19.30;17.23;;;;;;;23.86;74.49;101383.72;5113464;28;20019;-38
2023/06/29 11:00:17;;;;;;;17.42;15.70;;;;;;;23.93;74.10;101379.72;5114098;28;20604;-38
2023/06/29 11:02:44;;;;;;;15.73;14.23;;;;;;;23.92;73.41;101376.13;5113572;28;20063;-37